Time;durP1;ratioP1;P1;durP2;ratioP2;P2;SDS_P1;SDS_P2;PMS_P1;PMS_P2;Temp;Humidity;BMP_temperature;BMP_pressure;BME280_temperature;BME280_humidity;BME280_pressure;Samples;Min_cycle;Max_cycle;Signal;HPM_P1;HPM_P2
2023/01/26 00:00:53;;;;;;;41.87;18.97;;;-0.90;99.90;;;;;;4954595;29;20425;-84
2023/01/26 00:03:19;;;;;;;33.33;15.67;;;-0.90;99.90;;;;;;4956846;29;20511;-91
2023/01/26 00:05:45;;;;;;;29.83;16.00;;;-0.90;99.90;;;;;;4956449;29;20988;-86
2023/01/26 00:08:11;;;;;;;38.43;17.97;;;-0.90;99.90;;;;;;4956273;29;20215;-90
2023/01/26 00:10:38;;;;;;;47.13;21.40;;;-0.90;99.90;;;;;;4939296;29;20232;-87
2023/01/26 00:13:04;;;;;;;35.83;16.93;;;-0.90;99.90;;;;;;4939209;29;20439;-90
2023/01/26 00:15:34;;;;;;;25.50;15.70;;;-0.90;99.90;;;;;;4956986;29;20420;-88
2023/01/26 00:18:01;;;;;;;35.20;16.30;;;-0.90;99.90;;;;;;4939421;29;20441;-92
2023/01/26 00:20:27;;;;;;;31.13;16.27;;;-1.10;99.90;;;;;;4956886;29;20491;-85
2023/01/26 00:22:53;;;;;;;25.10;13.20;;;-1.10;99.90;;;;;;4956090;29;20440;-90
2023/01/26 00:25:19;;;;;;;36.27;15.83;;;-1.10;99.90;;;;;;4954775;29;20429;-93
2023/01/26 00:27:44;;;;;;;39.63;17.10;;;-1.10;99.90;;;;;;4937703;29;20177;-89
2023/01/26 00:30:10;;;;;;;29.10;14.97;;;-1.20;99.90;;;;;;4920169;29;20186;-91
2023/01/26 00:32:36;;;;;;;31.13;16.00;;;-1.10;99.90;;;;;;4936914;29;20221;-86
2023/01/26 00:35:05;;;;;;;29.37;11.20;;;-1.00;99.90;;;;;;4937084;29;20184;-86
2023/01/26 00:38:11;;;;;;;36.57;16.00;;;-1.00;99.90;;;;;;4919737;29;20813;-90
2023/01/26 00:40:38;;;;;;;27.30;13.27;;;-1.00;99.90;;;;;;4940149;29;20766;-84
2023/01/26 00:43:35;;;;;;;38.80;20.33;;;-0.90;99.90;;;;;;4928559;29;20433;-96
2023/01/26 00:46:01;;;;;;;34.17;15.77;;;-0.90;99.90;;;;;;4932754;29;20427;-84
2023/01/26 00:48:26;;;;;;;35.20;16.90;;;-0.90;99.90;;;;;;4939178;29;20497;-89
2023/01/26 00:50:52;;;;;;;32.60;17.10;;;-1.00;99.90;;;;;;4940141;29;20189;-93
2023/01/26 00:53:18;;;;;;;37.13;16.17;;;-1.00;99.90;;;;;;4937381;29;20185;-92
2023/01/26 00:55:43;;;;;;;28.80;14.90;;;-1.00;99.90;;;;;;4979108;23;20494;-93
2023/01/26 00:58:09;;;;;;;30.50;16.40;;;-1.10;99.90;;;;;;4990977;28;20176;-91
2023/01/26 01:00:37;;;;;;;26.70;13.40;;;-1.00;99.90;;;;;;4988185;28;20175;-95
2023/01/26 01:03:04;;;;;;;33.17;15.63;;;-0.90;99.90;;;;;;4989182;28;20179;-87
2023/01/26 01:05:31;;;;;;;32.63;15.50;;;-0.90;99.90;;;;;;4989268;28;20449;-87
2023/01/26 01:08:00;;;;;;;25.70;15.13;;;-0.90;99.90;;;;;;4980360;28;20437;-90
2023/01/26 01:10:26;;;;;;;33.10;15.80;;;-0.90;99.90;;;;;;4994392;28;20417;-84
2023/01/26 01:12:51;;;;;;;38.10;19.37;;;-0.80;99.90;;;;;;4994553;28;20422;-89
2023/01/26 01:15:17;;;;;;;32.47;17.10;;;-0.90;99.90;;;;;;4977121;28;20432;-90
2023/01/26 01:17:43;;;;;;;31.10;13.43;;;-0.80;99.90;;;;;;4994809;28;20189;-91
2023/01/26 01:20:09;;;;;;;28.77;15.60;;;-0.90;99.90;;;;;;4977863;28;20553;-94
2023/01/26 01:22:35;;;;;;;30.93;15.90;;;-1.00;99.90;;;;;;4932915;28;20193;-93
2023/01/26 01:25:01;;;;;;;32.03;16.00;;;-0.90;99.90;;;;;;4973687;28;21008;-92
2023/01/26 01:27:29;;;;;;;35.83;14.97;;;-0.90;99.90;;;;;;4973965;28;20181;-92
2023/01/26 01:29:54;;;;;;;35.13;16.93;;;-0.80;99.90;;;;;;4975274;28;20413;-93
2023/01/26 01:32:20;;;;;;;36.63;18.57;;;-0.80;99.90;;;;;;4973807;28;20834;-93
2023/01/26 01:34:46;;;;;;;38.50;16.07;;;-0.80;99.90;;;;;;4975601;28;20173;-96
2023/01/26 01:37:12;;;;;;;31.33;16.87;;;-0.80;99.90;;;;;;4979577;28;20184;-93
2023/01/26 01:39:38;;;;;;;27.03;14.83;;;-0.90;99.90;;;;;;4987065;28;20422;-87
2023/01/26 01:42:03;;;;;;;33.90;16.40;;;-0.80;99.90;;;;;;4994956;28;20172;-90
2023/01/26 01:44:29;;;;;;;36.10;16.80;;;-0.90;99.90;;;;;;5009983;28;20212;-94
2023/01/26 01:47:01;;;;;;;38.53;17.57;;;-0.90;99.90;;;;;;4994777;28;20168;-94
2023/01/26 01:49:44;;;;;;;32.77;16.30;;;-0.80;99.90;;;;;;4994890;28;20182;-94
2023/01/26 01:52:25;;;;;;;31.83;15.70;;;-0.90;99.90;;;;;;5009623;28;20855;-89
2023/01/26 01:55:17;;;;;;;26.70;15.80;;;-0.90;99.90;;;;;;5012296;28;20422;-86
2023/01/26 01:57:51;;;;;;;39.33;14.77;;;-0.80;99.90;;;;;;5010843;28;20449;-85
2023/01/26 02:00:19;;;;;;;34.97;15.60;;;-0.70;99.90;;;;;;5022481;28;20437;-94
2023/01/26 02:03:09;;;;;;;31.00;15.40;;;-0.80;99.90;;;;;;5021042;28;20406;-93
2023/01/26 02:05:47;;;;;;;36.47;16.50;;;-0.80;99.90;;;;;;5021222;28;20433;-93
2023/01/26 02:08:16;;;;;;;38.93;16.07;;;-0.90;99.90;;;;;;5022005;28;20418;-88
2023/01/26 02:11:13;;;;;;;39.77;17.37;;;-0.80;99.90;;;;;;5031829;28;20465;-85
2023/01/26 02:16:05;;;;;;;31.63;15.13;;;-0.80;99.90;;;;;;5199665;23;20514;-85
2023/01/26 02:18:30;;;;;;;35.63;16.03;;;-0.80;99.90;;;;;;5020213;28;20167;-85
2023/01/26 02:21:00;;;;;;;27.80;13.70;;;-0.80;99.90;;;;;;5016564;28;20159;-85
2023/01/26 02:23:54;;;;;;;36.10;17.20;;;-0.70;99.90;;;;;;5038683;23;20168;-85
2023/01/26 02:26:25;;;;;;;38.07;16.80;;;-0.80;99.90;;;;;;5183893;23;20502;-90
2023/01/26 02:28:50;;;;;;;32.40;14.13;;;-0.80;99.90;;;;;;4997625;28;20463;-84
2023/01/26 02:31:17;;;;;;;40.33;12.67;;;-0.70;99.90;;;;;;4987626;28;20479;-93
2023/01/26 02:33:43;;;;;;;35.77;16.97;;;-0.80;99.90;;;;;;4987529;28;20195;-91
2023/01/26 02:36:29;;;;;;;39.73;16.53;;;-0.80;99.90;;;;;;4986865;28;20436;-87
2023/01/26 02:38:58;;;;;;;36.87;18.67;;;-0.80;99.90;;;;;;4985678;28;20184;-90
2023/01/26 02:44:11;;;;;;;36.10;16.07;;;-0.70;99.90;;;;;;4993723;28;20468;-87
2023/01/26 02:46:36;;;;;;;33.70;15.00;;;-0.70;99.90;;;;;;4992834;28;20413;-89
2023/01/26 02:49:49;;;;;;;41.53;19.77;;;-0.60;99.90;;;;;;4993697;28;20625;-91
2023/01/26 02:51:48;;;;;;;34.80;17.63;;;-0.70;99.90;;;;;;4947305;28;20266;-89
2023/01/26 02:57:00;;;;;;;42.63;16.30;;;-0.70;99.90;;;;;;4989071;28;20244;-93
2023/01/26 02:59:29;;;;;;;39.27;16.90;;;-0.70;99.90;;;;;;5003542;28;20439;-84
2023/01/26 03:01:56;;;;;;;23.93;13.07;;;-0.80;99.90;;;;;;5000535;28;20227;-93
2023/01/26 03:04:23;;;;;;;36.30;15.30;;;-0.70;99.90;;;;;;4977152;28;20432;-93
2023/01/26 03:06:49;;;;;;;36.10;16.30;;;-0.60;99.90;;;;;;4992608;28;20430;-90
2023/01/26 03:09:18;;;;;;;47.07;15.03;;;-0.60;99.90;;;;;;4992465;28;20183;-95
2023/01/26 03:11:43;;;;;;;45.67;16.73;;;-0.70;99.90;;;;;;4992642;28;20254;-93
2023/01/26 03:14:10;;;;;;;34.77;17.90;;;-0.70;99.90;;;;;;4992264;28;20465;-91
2023/01/26 03:16:36;;;;;;;42.77;21.13;;;-0.70;99.90;;;;;;4979978;28;20196;-90
2023/01/26 03:29:45;;;;;;;35.23;15.37;;;-0.60;99.90;;;;;;4993113;28;20403;-91
2023/01/26 03:32:10;;;;;;;35.97;16.17;;;-0.50;99.90;;;;;;5002756;28;20507;-88
2023/01/26 03:34:36;;;;;;;32.97;13.00;;;-0.60;99.90;;;;;;4986481;28;20440;-86
2023/01/26 03:37:05;;;;;;;32.63;15.43;;;-0.60;99.90;;;;;;5002178;28;20182;-90
2023/01/26 03:56:18;;;;;;;30.50;14.47;;;-0.60;99.90;;;;;;4983296;28;20439;-95
2023/01/26 03:58:47;;;;;;;34.97;13.50;;;-0.40;99.90;;;;;;5002506;28;20466;-84
2023/01/26 04:01:20;;;;;;;28.33;12.93;;;-0.40;99.90;;;;;;5001607;28;20452;-90
2023/01/26 04:09:16;;;;;;;37.87;17.27;;;-0.60;99.90;;;;;;4976540;28;20439;-94
2023/01/26 04:11:42;;;;;;;42.13;17.37;;;-0.60;99.90;;;;;;4991299;28;20475;-94
2023/01/26 04:22:59;;;;;;;33.97;17.00;;;-0.60;99.90;;;;;;4950059;28;20444;-83
2023/01/26 04:25:45;;;;;;;33.60;15.53;;;-0.50;99.90;;;;;;4967935;28;20483;-90
2023/01/26 04:28:11;;;;;;;30.57;13.97;;;-0.50;99.90;;;;;;4991092;28;20789;-91
2023/01/26 04:30:37;;;;;;;31.13;16.97;;;-0.50;99.90;;;;;;4991279;28;20411;-91
2023/01/26 04:33:03;;;;;;;30.67;14.47;;;-0.50;99.90;;;;;;4990987;28;20545;-92
2023/01/26 04:35:29;;;;;;;38.20;16.40;;;-0.60;99.90;;;;;;4990796;28;20412;-91
2023/01/26 04:37:54;;;;;;;25.43;13.73;;;-0.60;99.90;;;;;;4990335;28;20183;-89
2023/01/26 04:40:20;;;;;;;33.17;15.90;;;-0.50;99.90;;;;;;4990628;28;20178;-87
2023/01/26 04:42:45;;;;;;;40.57;15.87;;;-0.60;99.90;;;;;;4990486;28;20558;-94
2023/01/26 04:45:11;;;;;;;35.73;16.80;;;-0.50;99.90;;;;;;4990516;28;20509;-90
2023/01/26 04:47:37;;;;;;;37.60;16.27;;;-0.50;99.90;;;;;;4990946;28;20176;-89
2023/01/26 04:50:04;;;;;;;39.73;17.37;;;-0.50;99.90;;;;;;4990788;28;20217;-92
2023/01/26 04:52:29;;;;;;;34.67;15.47;;;-0.60;99.90;;;;;;4990321;28;20311;-89
2023/01/26 04:54:55;;;;;;;42.23;15.33;;;-0.60;99.90;;;;;;4975646;28;20894;-89
2023/01/26 04:57:23;;;;;;;37.80;16.57;;;-0.50;99.90;;;;;;4975354;28;20183;-92
2023/01/26 04:59:49;;;;;;;41.00;17.97;;;-0.40;99.90;;;;;;5000729;28;20182;-88
2023/01/26 05:02:16;;;;;;;32.80;15.43;;;-0.40;99.90;;;;;;4986450;28;20834;-85
2023/01/26 05:04:42;;;;;;;39.00;17.00;;;-0.40;99.90;;;;;;4989675;28;20179;-94
2023/01/26 05:07:07;;;;;;;33.43;15.07;;;-0.40;99.90;;;;;;5008647;28;20424;-84
2023/01/26 05:09:58;;;;;;;40.70;19.20;;;-0.40;99.90;;;;;;5094637;23;20220;-84
2023/01/26 05:12:33;;;;;;;40.97;16.70;;;-0.40;99.90;;;;;;4997893;23;20289;-84
2023/01/26 05:14:59;;;;;;;35.83;17.57;;;-0.60;99.90;;;;;;4974939;29;20497;-84
2023/01/26 05:17:24;;;;;;;35.43;15.53;;;-0.40;99.90;;;;;;4973357;28;20436;-84
2023/01/26 05:19:49;;;;;;;35.77;16.77;;;-0.40;99.90;;;;;;4990067;23;20209;-84
2023/01/26 05:22:20;;;;;;;28.87;13.63;;;-0.40;99.90;;;;;;5043967;23;20215;-84
2023/01/26 05:24:45;;;;;;;29.87;14.87;;;-0.40;99.90;;;;;;5018684;23;20233;-84
2023/01/26 05:27:20;;;;;;;34.70;17.17;;;-0.40;99.90;;;;;;4984651;28;20807;-94
2023/01/26 05:29:45;;;;;;;29.13;15.07;;;-0.40;99.90;;;;;;4975433;28;20190;-86
2023/01/26 05:32:11;;;;;;;32.23;15.50;;;-0.30;99.90;;;;;;4975329;28;21111;-92
2023/01/26 05:34:37;;;;;;;31.80;14.00;;;-0.40;99.90;;;;;;4979549;28;20195;-94
2023/01/26 05:37:02;;;;;;;29.23;14.87;;;-0.40;99.90;;;;;;4985903;28;20270;-88
2023/01/26 05:39:28;;;;;;;29.60;15.23;;;-0.40;99.90;;;;;;4982963;28;20173;-88
2023/01/26 05:41:56;;;;;;;30.47;17.77;;;-0.40;99.90;;;;;;4972528;28;20173;-88
2023/01/26 05:44:23;;;;;;;40.30;17.53;;;-0.30;99.90;;;;;;4991538;28;20168;-89
2023/01/26 05:46:49;;;;;;;32.23;14.40;;;-0.30;99.90;;;;;;4978507;28;20459;-88
2023/01/26 05:49:15;;;;;;;30.57;13.53;;;-0.30;99.90;;;;;;4978038;28;20754;-92
2023/01/26 05:51:40;;;;;;;30.40;14.40;;;-0.20;99.90;;;;;;4978155;28;20482;-91
2023/01/26 05:54:06;;;;;;;34.50;17.03;;;-0.20;99.90;;;;;;4977543;28;20172;-91
2023/01/26 05:56:31;;;;;;;28.40;14.30;;;-0.20;99.90;;;;;;4977883;28;20207;-92
2023/01/26 05:58:57;;;;;;;24.40;12.30;;;-0.30;99.90;;;;;;4978073;28;20203;-86
2023/01/26 06:01:22;;;;;;;26.27;11.93;;;-0.30;99.90;;;;;;4978337;28;20173;-92
2023/01/26 06:03:48;;;;;;;27.77;13.67;;;-0.30;99.90;;;;;;4977424;28;20177;-86
2023/01/26 06:06:13;;;;;;;32.53;14.30;;;-0.30;99.90;;;;;;4977108;28;20230;-85
2023/01/26 06:08:39;;;;;;;32.80;14.37;;;-0.30;99.90;;;;;;4993332;28;20189;-89
2023/01/26 06:11:04;;;;;;;31.93;14.53;;;-0.30;99.90;;;;;;4978618;28;20267;-94
2023/01/26 06:13:30;;;;;;;30.50;13.50;;;-0.30;99.90;;;;;;4978572;28;20208;-93
2023/01/26 06:15:55;;;;;;;36.27;15.23;;;-0.30;99.90;;;;;;4976683;28;20185;-89
2023/01/26 06:18:21;;;;;;;30.93;14.77;;;-0.20;99.90;;;;;;4976691;28;20178;-93
2023/01/26 06:20:46;;;;;;;28.73;13.23;;;-0.30;99.90;;;;;;4977399;28;20176;-91
2023/01/26 06:23:12;;;;;;;29.00;14.27;;;-0.20;99.90;;;;;;4976670;28;20265;-92
2023/01/26 06:25:38;;;;;;;29.33;14.40;;;-0.20;99.90;;;;;;4977035;28;20231;-86
2023/01/26 06:28:04;;;;;;;30.97;13.70;;;-0.20;99.90;;;;;;4977043;28;20431;-93
2023/01/26 06:30:30;;;;;;;25.30;14.03;;;-0.20;99.90;;;;;;4976859;28;20175;-92
2023/01/26 06:32:56;;;;;;;34.30;16.23;;;-0.20;99.90;;;;;;4977277;28;20926;-93
2023/01/26 06:35:25;;;;;;;29.20;14.67;;;-0.20;99.90;;;;;;4976514;28;20425;-86
2023/01/26 06:37:51;;;;;;;27.00;12.13;;;-0.20;99.90;;;;;;4976914;28;20176;-89
2023/01/26 06:40:18;;;;;;;35.47;15.40;;;-0.20;99.90;;;;;;4981965;28;20435;-86
2023/01/26 06:48:05;;;;;;;32.13;13.10;;;-0.10;99.90;;;;;;5054295;23;20488;-87
2023/01/26 06:50:32;;;;;;;25.97;13.47;;;-0.10;99.90;;;;;;5003894;23;20496;-92
2023/01/26 06:53:17;;;;;;;30.07;13.30;;;-0.10;99.90;;;;;;5005907;28;20535;-87
2023/01/26 06:55:43;;;;;;;24.53;11.57;;;-0.20;99.90;;;;;;4981381;28;20429;-95
2023/01/26 06:58:10;;;;;;;28.60;12.80;;;-0.10;99.90;;;;;;4996436;28;20449;-91
2023/01/26 07:00:38;;;;;;;34.77;15.63;;;0.00;99.90;;;;;;4995612;28;20183;-85
2023/01/26 07:03:10;;;;;;;29.53;11.97;;;-0.10;99.90;;;;;;4996767;28;20412;-85
2023/01/26 07:05:36;;;;;;;28.27;14.63;;;-0.10;99.90;;;;;;4979775;28;20463;-92
2023/01/26 07:08:03;;;;;;;25.43;13.30;;;0.00;99.90;;;;;;4980050;28;20794;-90
2023/01/26 07:10:29;;;;;;;22.60;12.93;;;-0.10;99.90;;;;;;4979457;28;20182;-91
2023/01/26 07:12:54;;;;;;;24.60;13.10;;;0.00;99.90;;;;;;4979931;28;20434;-90
2023/01/26 07:15:20;;;;;;;34.33;11.73;;;-0.10;99.90;;;;;;4995590;28;20472;-91
2023/01/26 07:17:45;;;;;;;26.67;11.37;;;-0.10;99.90;;;;;;4995926;28;20176;-92
2023/01/26 07:20:11;;;;;;;32.57;12.20;;;-0.10;99.90;;;;;;4995871;28;20179;-91
2023/01/26 07:22:37;;;;;;;29.50;13.50;;;-0.10;99.90;;;;;;4964192;28;20299;-87
2023/01/26 07:25:03;;;;;;;25.70;13.10;;;-0.10;99.90;;;;;;5003487;28;20621;-89
2023/01/26 07:27:28;;;;;;;26.87;12.17;;;-0.10;99.90;;;;;;4982342;28;20211;-92
2023/01/26 07:29:53;;;;;;;28.83;13.40;;;-0.10;99.90;;;;;;4995523;28;20183;-91
2023/01/26 07:32:19;;;;;;;31.03;13.70;;;-0.10;99.90;;;;;;4979808;28;20216;-86
2023/01/26 07:34:44;;;;;;;28.50;11.67;;;0.00;99.90;;;;;;4996066;28;20180;-93
2023/01/26 07:37:10;;;;;;;24.87;11.00;;;0.00;99.90;;;;;;4997122;28;20184;-91
2023/01/26 07:39:35;;;;;;;30.63;13.63;;;0.00;99.90;;;;;;4997283;28;20175;-91
2023/01/26 07:42:01;;;;;;;24.50;13.00;;;0.10;99.90;;;;;;4980719;28;20249;-91
2023/01/26 07:44:26;;;;;;;21.60;10.70;;;0.10;99.90;;;;;;4997475;28;20187;-93
2023/01/26 07:46:53;;;;;;;26.60;12.17;;;0.10;99.90;;;;;;4996813;28;20172;-93
2023/01/26 07:49:18;;;;;;;17.53;9.60;;;0.00;99.90;;;;;;4980824;28;20181;-93
2023/01/26 07:51:44;;;;;;;22.07;11.50;;;0.10;99.90;;;;;;4995573;28;20489;-93
2023/01/26 07:54:11;;;;;;;25.60;12.87;;;0.00;99.90;;;;;;4996471;28;20189;-94
2023/01/26 07:56:38;;;;;;;27.83;13.07;;;0.10;99.90;;;;;;5007002;28;20188;-93
2023/01/26 07:59:03;;;;;;;24.00;12.13;;;0.10;99.90;;;;;;5005120;28;20415;-95
2023/01/26 08:01:29;;;;;;;31.40;14.40;;;0.10;99.90;;;;;;5006527;28;20218;-94
2023/01/26 08:03:55;;;;;;;26.77;14.80;;;0.00;99.90;;;;;;5013527;28;20276;-87
2023/01/26 08:06:21;;;;;;;32.77;14.67;;;0.00;99.90;;;;;;4995627;28;20168;-89
2023/01/26 08:08:50;;;;;;;24.20;12.67;;;0.10;99.90;;;;;;5012897;28;20518;-95
2023/01/26 08:11:16;;;;;;;23.70;11.30;;;0.10;99.90;;;;;;4995263;28;20702;-92
2023/01/26 08:13:41;;;;;;;27.47;11.37;;;0.20;99.90;;;;;;4999934;28;20429;-88
2023/01/26 08:16:10;;;;;;;23.27;11.30;;;0.20;99.90;;;;;;5016687;28;20427;-95
2023/01/26 08:18:44;;;;;;;31.20;12.93;;;0.30;99.90;;;;;;5016463;28;20172;-86
2023/01/26 08:21:11;;;;;;;29.87;12.43;;;0.20;99.90;;;;;;4996190;28;20927;-85
2023/01/26 08:23:37;;;;;;;20.37;11.77;;;0.20;99.90;;;;;;5082613;23;20495;-86
2023/01/26 08:26:06;;;;;;;19.60;10.37;;;0.30;99.90;;;;;;4996791;28;20479;-86
2023/01/26 08:28:32;;;;;;;24.47;12.30;;;0.40;99.90;;;;;;4970527;28;20202;-86
2023/01/26 08:31:05;;;;;;;26.07;11.50;;;0.30;99.90;;;;;;4987785;28;20462;-86
2023/01/26 08:33:33;;;;;;;21.83;12.00;;;0.40;99.90;;;;;;4992104;23;20536;-86
2023/01/26 08:36:06;;;;;;;18.20;10.93;;;-0.50;99.90;;;;;;5012679;28;20427;-87
2023/01/26 08:38:36;;;;;;;23.17;9.63;;;-0.30;99.90;;;;;;5012515;23;20491;-86
2023/01/26 08:43:37;;;;;;;25.20;9.50;;;0.40;99.90;;;;;;5218395;23;20479;-90
2023/01/26 08:46:06;;;;;;;24.00;11.47;;;0.30;99.90;;;;;;5014279;28;20450;-95
2023/01/26 08:48:32;;;;;;;22.70;10.23;;;0.80;99.90;;;;;;5118906;23;20483;-85
2023/01/26 08:50:59;;;;;;;23.37;10.47;;;0.50;99.90;;;;;;4988179;28;20460;-91
2023/01/26 08:53:29;;;;;;;26.60;13.10;;;0.60;99.90;;;;;;4990031;28;20426;-93
2023/01/26 08:55:55;;;;;;;22.70;10.27;;;0.60;99.90;;;;;;4986778;28;20417;-92
2023/01/26 08:58:20;;;;;;;25.80;11.60;;;0.60;99.90;;;;;;4983986;28;20411;-93
2023/01/26 09:00:46;;;;;;;21.93;10.73;;;0.60;99.90;;;;;;4976381;28;20207;-90
2023/01/26 09:03:11;;;;;;;23.53;10.30;;;0.70;99.90;;;;;;4977892;28;20198;-90
2023/01/26 09:05:39;;;;;;;23.37;11.00;;;0.70;99.90;;;;;;4978757;28;20205;-86
2023/01/26 09:08:06;;;;;;;23.53;11.13;;;0.70;99.90;;;;;;4976241;28;20215;-92
2023/01/26 09:10:32;;;;;;;17.70;8.43;;;0.70;99.90;;;;;;4960872;28;20438;-92
2023/01/26 09:12:58;;;;;;;25.63;11.50;;;0.70;99.90;;;;;;4992844;28;20429;-89
2023/01/26 09:15:23;;;;;;;27.50;10.73;;;0.70;99.90;;;;;;4978678;28;20212;-90
2023/01/26 09:17:49;;;;;;;27.57;12.13;;;0.70;99.90;;;;;;4979055;28;20784;-93
2023/01/26 09:20:15;;;;;;;23.83;10.07;;;0.60;99.90;;;;;;4978941;28;20543;-86
2023/01/26 09:22:41;;;;;;;18.83;9.30;;;0.70;99.90;;;;;;4962989;28;20191;-86
2023/01/26 09:25:10;;;;;;;21.93;11.53;;;0.70;99.90;;;;;;4980152;28;20431;-92
2023/01/26 09:27:36;;;;;;;14.93;8.60;;;0.80;99.90;;;;;;4979626;28;20176;-91
2023/01/26 09:30:02;;;;;;;21.00;9.40;;;0.70;99.90;;;;;;4996337;28;20784;-91
2023/01/26 09:32:28;;;;;;;26.37;11.67;;;0.80;99.90;;;;;;4995949;28;20211;-87
2023/01/26 09:34:55;;;;;;;19.57;9.67;;;0.70;99.90;;;;;;4980012;28;20780;-91
2023/01/26 09:37:27;;;;;;;18.23;10.43;;;0.80;99.90;;;;;;4997021;28;20435;-92
2023/01/26 09:39:53;;;;;;;19.90;9.53;;;0.90;99.90;;;;;;4983827;28;20525;-92
2023/01/26 09:42:28;;;;;;;24.87;12.00;;;0.80;99.90;;;;;;4996748;28;21015;-91
2023/01/26 09:45:12;;;;;;;19.27;9.40;;;0.90;99.90;;;;;;4982727;28;20517;-91
2023/01/26 09:48:19;;;;;;;21.13;11.17;;;0.90;99.90;;;;;;4992343;28;20407;-91
2023/01/26 09:51:07;;;;;;;18.50;10.80;;;0.90;99.90;;;;;;4981455;28;20528;-90
2023/01/26 09:53:42;;;;;;;21.27;9.90;;;0.90;99.90;;;;;;4978656;28;20426;-90
2023/01/26 09:56:16;;;;;;;17.53;9.10;;;0.80;99.90;;;;;;4995468;28;20514;-90
2023/01/26 09:58:48;;;;;;;17.40;10.40;;;1.00;99.90;;;;;;4979773;28;20464;-90
2023/01/26 10:01:25;;;;;;;20.30;10.07;;;1.00;99.90;;;;;;4978537;28;20594;-91
2023/01/26 10:04:00;;;;;;;18.67;8.37;;;1.00;99.90;;;;;;4978374;28;20464;-92
2023/01/26 10:06:30;;;;;;;20.40;10.80;;;1.10;99.90;;;;;;4979784;28;20422;-90
2023/01/26 10:09:00;;;;;;;20.20;9.40;;;1.10;99.90;;;;;;4980658;28;20412;-94
2023/01/26 10:11:37;;;;;;;19.63;10.37;;;1.10;99.90;;;;;;4979602;28;20467;-92
2023/01/26 10:14:18;;;;;;;18.90;9.80;;;1.20;99.90;;;;;;4979950;28;20411;-84
2023/01/26 10:16:47;;;;;;;15.93;8.20;;;1.20;99.90;;;;;;4995931;28;20427;-93
2023/01/26 10:19:20;;;;;;;17.60;9.10;;;1.30;99.90;;;;;;4995124;28;20448;-93
2023/01/26 10:21:49;;;;;;;16.80;9.60;;;1.20;99.90;;;;;;4979623;28;20723;-92
2023/01/26 10:24:19;;;;;;;18.47;9.30;;;1.30;99.90;;;;;;4993411;28;20416;-90
2023/01/26 10:26:44;;;;;;;22.07;10.03;;;1.30;99.90;;;;;;4996998;28;20484;-92
2023/01/26 10:29:16;;;;;;;21.07;9.33;;;1.30;99.90;;;;;;4978346;28;20422;-90
2023/01/26 10:31:43;;;;;;;20.13;9.50;;;1.30;99.90;;;;;;4994468;28;20212;-93
2023/01/26 10:34:19;;;;;;;19.40;10.10;;;1.30;99.90;;;;;;4979137;28;20416;-91
2023/01/26 10:37:19;;;;;;;13.73;8.80;;;1.30;99.90;;;;;;4976391;28;20447;-89
2023/01/26 10:39:56;;;;;;;13.00;6.63;;;1.30;99.90;;;;;;4979226;28;20412;-88
2023/01/26 10:42:22;;;;;;;17.30;9.03;;;1.20;99.90;;;;;;4977786;28;20416;-89
2023/01/26 10:44:49;;;;;;;20.70;8.83;;;1.30;99.90;;;;;;4978083;28;20814;-88
2023/01/26 10:47:17;;;;;;;20.43;9.13;;;1.30;99.90;;;;;;4977207;28;20488;-89
2023/01/26 10:49:43;;;;;;;15.80;6.37;;;1.40;99.90;;;;;;4976982;28;20460;-83
2023/01/26 10:52:24;;;;;;;16.10;7.73;;;1.40;99.90;;;;;;4976628;28;20487;-89
2023/01/26 10:55:18;;;;;;;14.37;6.70;;;1.40;99.90;;;;;;4977525;28;20169;-89
2023/01/26 10:57:44;;;;;;;14.33;7.63;;;1.40;99.90;;;;;;4986532;28;20430;-86
2023/01/26 11:00:22;;;;;;;20.90;9.40;;;1.40;99.90;;;;;;4976390;28;20499;-89
2023/01/26 11:02:51;;;;;;;21.37;9.37;;;1.40;99.90;;;;;;4976722;28;20172;-90
2023/01/26 11:05:24;;;;;;;16.50;9.70;;;1.40;99.90;;;;;;4978318;28;20444;-91
2023/01/26 11:08:02;;;;;;;17.33;8.87;;;1.40;99.90;;;;;;4977641;28;20435;-92
2023/01/26 11:10:34;;;;;;;20.37;10.13;;;1.50;99.90;;;;;;4976383;28;20782;-92
2023/01/26 11:13:18;;;;;;;19.50;9.93;;;1.50;99.90;;;;;;4975969;28;20483;-87
2023/01/26 11:16:18;;;;;;;17.07;8.37;;;1.60;99.90;;;;;;4983056;28;20424;-87
2023/01/26 11:19:05;;;;;;;16.50;7.50;;;1.60;99.90;;;;;;4976600;28;20506;-90
2023/01/26 11:21:47;;;;;;;20.30;8.60;;;1.30;99.90;;;;;;4977096;28;20430;-91
2023/01/26 11:24:23;;;;;;;17.97;6.77;;;1.60;99.90;;;;;;4976368;28;20520;-89
2023/01/26 11:27:19;;;;;;;18.53;7.20;;;1.60;99.90;;;;;;4992338;28;20417;-89
2023/01/26 11:30:11;;;;;;;18.40;10.13;;;1.60;99.90;;;;;;4992457;28;20478;-89
2023/01/26 11:33:00;;;;;;;20.27;8.10;;;1.60;99.90;;;;;;4976663;28;20507;-91
2023/01/26 11:35:41;;;;;;;18.77;8.40;;;1.60;99.90;;;;;;4992032;28;20422;-89
2023/01/26 11:38:24;;;;;;;17.90;8.00;;;1.70;99.90;;;;;;4992558;28;20508;-90
2023/01/26 11:41:17;;;;;;;18.53;8.17;;;1.60;99.90;;;;;;4991895;28;20411;-89
2023/01/26 11:44:12;;;;;;;17.50;9.13;;;1.70;99.90;;;;;;4975561;28;20434;-89
2023/01/26 11:47:20;;;;;;;16.53;8.20;;;1.70;99.90;;;;;;4976711;28;20420;-89
2023/01/26 11:50:36;;;;;;;21.10;8.77;;;1.60;99.90;;;;;;4975656;28;20470;-88
2023/01/26 11:53:42;;;;;;;17.33;9.03;;;1.70;99.90;;;;;;4976078;28;20971;-88
2023/01/26 11:56:21;;;;;;;24.50;8.73;;;1.70;99.90;;;;;;4975085;28;20522;-84
2023/01/26 11:59:05;;;;;;;21.43;11.50;;;1.80;99.90;;;;;;4977227;28;20420;-84
2023/01/26 12:01:36;;;;;;;24.17;10.60;;;1.80;99.90;;;;;;4975201;28;20424;-90
2023/01/26 12:04:02;;;;;;;25.23;10.60;;;1.80;99.90;;;;;;4975373;28;20482;-93
2023/01/26 12:06:46;;;;;;;23.90;10.20;;;1.80;99.90;;;;;;4976336;28;20423;-90
2023/01/26 12:09:31;;;;;;;27.00;11.80;;;1.80;99.90;;;;;;4965063;28;20715;-89
2023/01/26 12:12:23;;;;;;;31.27;12.03;;;1.80;99.90;;;;;;4995626;28;20472;-91
2023/01/26 12:15:12;;;;;;;20.83;9.30;;;1.80;99.90;;;;;;4994753;28;20404;-91
2023/01/26 12:18:04;;;;;;;26.57;11.50;;;1.90;99.90;;;;;;5013881;28;20509;-90
2023/01/26 12:20:44;;;;;;;24.23;10.73;;;1.90;99.90;;;;;;5014836;28;20469;-93
2023/01/26 12:23:37;;;;;;;28.67;12.70;;;1.80;99.90;;;;;;5015451;28;20509;-93
2023/01/26 12:26:24;;;;;;;20.00;8.53;;;1.90;99.90;;;;;;5013990;28;20473;-91
2023/01/26 12:29:26;;;;;;;21.63;10.20;;;2.10;99.90;;;;;;5001095;28;20411;-91
2023/01/26 12:32:06;;;;;;;23.93;12.53;;;2.10;99.90;;;;;;5000064;28;20988;-92
2023/01/26 12:34:33;;;;;;;32.57;11.33;;;2.10;99.90;;;;;;4997227;28;20419;-92
2023/01/26 12:37:35;;;;;;;29.23;12.40;;;2.10;99.90;;;;;;4996374;28;20777;-93
2023/01/26 12:40:24;;;;;;;22.50;10.20;;;2.10;99.90;;;;;;4996500;28;20946;-85
2023/01/26 12:43:20;;;;;;;25.37;11.87;;;2.10;99.90;;;;;;5011523;28;20427;-87
2023/01/26 12:45:49;;;;;;;33.57;12.50;;;2.20;99.90;;;;;;5002936;28;20508;-85
2023/01/26 12:48:29;;;;;;;44.83;13.27;;;2.20;99.90;;;;;;4999109;28;20498;-83
2023/01/26 12:51:19;;;;;;;24.50;11.80;;;2.20;99.90;;;;;;4995755;28;20441;-90
2023/01/26 12:53:56;;;;;;;32.27;13.70;;;2.20;99.90;;;;;;4978826;28;20501;-93
2023/01/26 12:56:34;;;;;;;36.33;15.03;;;2.20;99.90;;;;;;4996777;28;20429;-88
2023/01/26 12:59:12;;;;;;;34.50;13.47;;;2.30;99.90;;;;;;4990904;28;20419;-88
2023/01/26 13:01:40;;;;;;;33.40;12.10;;;2.30;99.90;;;;;;4978858;28;20997;-85
2023/01/26 13:04:11;;;;;;;33.50;13.03;;;2.40;99.90;;;;;;4980392;28;20915;-95
2023/01/26 13:06:37;;;;;;;31.23;13.40;;;2.30;99.90;;;;;;4979025;28;20431;-93
2023/01/26 13:09:19;;;;;;;24.87;12.40;;;2.40;99.90;;;;;;4995996;28;20476;-87
2023/01/26 13:11:45;;;;;;;36.30;13.50;;;2.40;99.90;;;;;;4979649;28;20218;-92
2023/01/26 13:14:41;;;;;;;32.00;15.10;;;2.40;99.90;;;;;;4996404;28;20827;-94
2023/01/26 13:17:18;;;;;;;32.63;12.30;;;2.40;99.90;;;;;;4995659;28;20423;-94
2023/01/26 13:19:44;;;;;;;24.13;10.07;;;2.50;99.90;;;;;;4994901;28;20406;-91
2023/01/26 13:22:24;;;;;;;28.80;9.87;;;2.50;99.90;;;;;;4995127;28;20784;-90
2023/01/26 13:24:58;;;;;;;17.83;9.40;;;;;;;;;;4995623;28;20203;-92
2023/01/26 13:27:59;;;;;;;17.67;7.97;;;2.50;99.90;;;;;;4996047;28;20399;-93
2023/01/26 13:30:25;;;;;;;22.00;7.13;;;2.60;99.90;;;;;;4970276;28;20485;-92
2023/01/26 13:33:26;;;;;;;16.33;6.90;;;2.60;99.90;;;;;;4997460;28;20558;-88
2023/01/26 13:35:54;;;;;;;15.50;9.20;;;2.60;99.90;;;;;;4976512;28;20519;-94
2023/01/26 13:38:46;;;;;;;12.30;5.93;;;2.70;99.90;;;;;;4968660;28;20437;-96
2023/01/26 13:41:19;;;;;;;15.27;5.87;;;2.70;99.90;;;;;;4978871;28;20431;-93
2023/01/26 13:44:17;;;;;;;11.33;4.93;;;2.60;99.90;;;;;;4979201;28;20415;-94
2023/01/26 13:46:51;;;;;;;11.40;5.40;;;2.70;99.90;;;;;;4952206;28;20466;-88
2023/01/26 13:49:46;;;;;;;10.17;4.67;;;2.60;99.90;;;;;;4984216;28;20497;-95
2023/01/26 13:52:25;;;;;;;9.20;4.20;;;2.60;99.90;;;;;;4986093;28;20495;-94
2023/01/26 13:54:53;;;;;;;12.30;5.17;;;2.60;99.90;;;;;;5010889;28;20419;-94